Time;durP1;ratioP1;P1;durP2;ratioP2;P2;SDS_P1;SDS_P2;PMS_P1;PMS_P2;Temp;Humidity;BMP_temperature;BMP_pressure;BME280_temperature;BME280_humidity;BME280_pressure;Samples;Min_cycle;Max_cycle;Signal;HPM_P1;HPM_P2
2023/08/21 00:00:38;;;;;;;1.20;1.20;;;;;;;24.91;66.23;97944.66;5031620;28;20255;-23
2023/08/21 00:03:06;;;;;;;1.30;1.20;;;;;;;24.91;66.34;97948.91;5047137;28;20201;-23
2023/08/21 00:05:33;;;;;;;1.37;1.27;;;;;;;24.91;66.07;97938.63;5038237;28;20246;-23
2023/08/21 00:08:00;;;;;;;1.20;1.20;;;;;;;24.91;65.86;97938.63;5019085;28;20436;-23
2023/08/21 00:10:26;;;;;;;1.60;1.50;;;;;;;24.91;65.83;97938.63;5038164;28;20227;-23
2023/08/21 00:12:53;;;;;;;1.43;1.33;;;;;;;24.91;65.86;97939.50;5031038;28;20209;-23
2023/08/21 00:15:19;;;;;;;1.20;1.20;;;;;;;24.91;65.91;97939.50;5038051;28;20220;-23
2023/08/21 00:17:46;;;;;;;1.50;1.40;;;;;;;24.90;65.92;97940.31;5032917;28;20893;-23
2023/08/21 00:20:13;;;;;;;1.47;1.37;;;;;;;24.91;65.92;97941.19;5039513;28;20208;-26
2023/08/21 00:22:39;;;;;;;1.20;1.20;;;;;;;24.91;66.34;97936.06;5047306;28;20236;-23
2023/08/21 00:25:06;;;;;;;1.30;1.20;;;;;;;24.90;66.01;97942.88;5032981;28;20221;-23
2023/08/21 00:27:33;;;;;;;1.20;1.20;;;;;;;24.90;66.35;97945.47;5031199;28;20237;-23
2023/08/21 00:30:00;;;;;;;1.30;1.27;;;;;;;24.90;66.34;97939.47;5041680;28;20255;-23
2023/08/21 00:32:27;;;;;;;1.20;1.20;;;;;;;24.90;66.25;97940.31;5042499;28;20675;-32
2023/08/21 00:34:53;;;;;;;1.20;1.20;;;;;;;24.90;66.21;97934.31;5040225;28;20233;-23
2023/08/21 00:37:20;;;;;;;1.27;1.23;;;;;;;24.89;65.95;97930.88;5037922;28;20231;-27
2023/08/21 00:39:47;;;;;;;1.27;1.27;;;;;;;24.90;66.42;97924.88;5033428;28;20209;-23
2023/08/21 00:42:13;;;;;;;1.40;1.30;;;;;;;24.90;66.29;97924.03;5042369;28;20202;-23
2023/08/21 00:44:40;;;;;;;1.43;1.33;;;;;;;24.90;66.07;97929.19;5031013;28;20295;-28
2023/08/21 00:47:06;;;;;;;1.20;1.20;;;;;;;24.90;66.33;97921.47;5038880;28;20208;-23
2023/08/21 00:49:33;;;;;;;1.40;1.30;;;;;;;24.84;66.25;97913.63;5049292;28;20221;-23
2023/08/21 00:51:59;;;;;;;1.20;1.20;;;;;;;24.90;66.30;97930.03;5016492;28;20616;-23
2023/08/21 00:54:26;;;;;;;1.60;1.40;;;;;;;24.85;66.30;97916.22;5042364;28;20217;-23
2023/08/21 00:56:53;;;;;;;1.20;1.20;;;;;;;24.90;66.01;97927.47;5018523;28;20206;-23
2023/08/21 00:59:20;;;;;;;1.27;1.27;;;;;;;24.90;66.16;97936.91;5033023;28;20221;-23
2023/08/21 01:01:46;;;;;;;1.10;1.10;;;;;;;24.90;66.10;97929.19;5020605;28;20311;-32
2023/08/21 01:04:13;;;;;;;1.27;1.27;;;;;;;24.90;66.48;97922.31;5048599;28;20588;-24
2023/08/21 01:06:39;;;;;;;1.23;1.23;;;;;;;24.90;65.94;97922.31;5044923;28;20212;-28
2023/08/21 01:09:29;;;;;;;1.17;1.17;;;;;;;24.89;66.01;97923.16;5038102;28;20224;-23
2023/08/21 01:12:10;;;;;;;1.20;1.20;;;;;;;24.89;65.98;97918.03;5037203;28;20255;-23
2023/08/21 01:14:43;;;;;;;1.30;1.20;;;;;;;24.74;66.04;97896.22;5032374;28;20252;-23
2023/08/21 01:17:10;;;;;;;1.20;1.20;;;;;;;24.89;66.28;97924.84;5017497;28;20654;-23
2023/08/21 01:19:41;;;;;;;1.20;1.20;;;;;;;24.90;66.09;97924.88;5018111;28;20652;-32
2023/08/21 01:22:08;;;;;;;1.27;1.27;;;;;;;24.89;66.39;97933.44;5041109;28;20213;-25
2023/08/21 01:24:35;;;;;;;1.40;1.30;;;;;;;24.90;66.17;97937.75;5043383;28;20225;-23
2023/08/21 01:27:02;;;;;;;1.43;1.33;;;;;;;24.90;66.16;97940.31;5040634;28;20202;-23
2023/08/21 01:29:28;;;;;;;1.27;1.27;;;;;;;24.90;66.54;97940.31;5039343;28;20239;-35
2023/08/21 01:32:17;;;;;;;1.20;1.20;;;;;;;24.90;66.34;97939.47;5050142;28;20275;-23
2023/08/21 01:34:44;;;;;;;1.40;1.30;;;;;;;24.90;66.20;97934.31;5032030;28;20213;-26
2023/08/21 01:37:10;;;;;;;1.40;1.30;;;;;;;24.87;65.95;97936.81;5030121;28;20235;-23
2023/08/21 01:39:37;;;;;;;1.80;1.47;;;;;;;24.90;66.03;97936.91;5017583;28;20274;-23
2023/08/21 01:42:04;;;;;;;1.50;1.40;;;;;;;24.90;66.39;97936.91;5043044;28;20201;-23
2023/08/21 01:44:31;;;;;;;1.20;1.20;;;;;;;24.83;66.32;97924.72;5048415;28;20657;-23
2023/08/21 01:46:58;;;;;;;1.17;1.17;;;;;;;24.89;66.12;97941.16;5039011;28;20771;-24
2023/08/21 01:49:24;;;;;;;1.20;1.20;;;;;;;24.90;66.07;97931.75;5046773;28;20201;-27
2023/08/21 01:51:51;;;;;;;1.50;1.40;;;;;;;24.90;66.26;97942.88;5039715;28;20676;-23
2023/08/21 01:54:18;;;;;;;1.40;1.30;;;;;;;24.90;66.49;97937.75;5049798;28;20201;-23
2023/08/21 01:56:44;;;;;;;1.40;1.30;;;;;;;24.90;66.41;97932.59;5038643;28;20201;-23
2023/08/21 01:59:11;;;;;;;1.10;1.10;;;;;;;24.91;66.23;97936.06;5038960;28;20217;-30
2023/08/21 02:01:37;;;;;;;1.40;1.30;;;;;;;24.90;66.49;97935.16;5023470;28;20201;-24
2023/08/21 02:04:04;;;;;;;1.33;1.23;;;;;;;24.91;66.30;97930.91;5042901;28;20202;-23
2023/08/21 02:06:31;;;;;;;1.20;1.20;;;;;;;24.90;66.46;97932.59;5040514;28;20248;-23
2023/08/21 02:08:57;;;;;;;1.50;1.40;;;;;;;24.91;65.96;97928.34;5046534;28;20289;-28
2023/08/21 02:11:24;;;;;;;1.20;1.20;;;;;;;24.90;66.11;97931.75;5042966;28;20660;-24
2023/08/21 02:13:50;;;;;;;1.50;1.40;;;;;;;24.91;66.42;97934.34;5034259;28;20257;-23
2023/08/21 02:16:17;;;;;;;1.10;1.10;;;;;;;24.91;66.18;97931.78;5033166;28;20221;-23
2023/08/21 02:18:43;;;;;;;1.30;1.20;;;;;;;24.92;66.02;97932.63;5034575;28;20224;-30
2023/08/21 02:21:10;;;;;;;1.13;1.10;;;;;;;24.90;66.20;97929.19;5033685;28;20285;-23
2023/08/21 02:23:36;;;;;;;1.30;1.30;;;;;;;24.90;66.44;97926.59;5041885;28;20201;-23
2023/08/21 02:26:03;;;;;;;1.47;1.37;;;;;;;24.90;66.41;97935.16;5047162;28;20216;-23
2023/08/21 02:28:30;;;;;;;1.20;1.20;;;;;;;24.90;66.13;97932.59;5040879;28;20256;-23
2023/08/21 02:30:56;;;;;;;1.20;1.20;;;;;;;24.90;66.06;97935.16;5041264;28;20202;-27
2023/08/21 02:33:23;;;;;;;1.20;1.20;;;;;;;24.91;66.43;97936.06;5032709;28;20210;-23
2023/08/21 02:35:49;;;;;;;1.27;1.27;;;;;;;24.90;66.48;97936.91;5033840;28;20669;-38
2023/08/21 02:38:16;;;;;;;1.50;1.40;;;;;;;24.91;66.08;97933.47;5031989;28;20256;-26
2023/08/21 02:40:42;;;;;;;1.40;1.30;;;;;;;24.91;66.23;97938.63;5042366;28;20627;-27
2023/08/21 02:43:09;;;;;;;1.20;1.20;;;;;;;24.91;66.08;97931.78;5043369;28;20626;-24
2023/08/21 02:45:36;;;;;;;1.30;1.20;;;;;;;24.91;66.37;97936.94;5069570;22;20231;-28
2023/08/21 02:48:03;;;;;;;1.50;1.40;;;;;;;24.91;66.42;97938.63;5072557;28;20204;-27
2023/08/21 02:50:30;;;;;;;1.50;1.40;;;;;;;24.91;66.33;97941.19;5071271;28;20656;-28
2023/08/21 02:52:56;;;;;;;1.33;1.30;;;;;;;24.89;66.56;97946.31;5074503;28;20261;-27
2023/08/21 02:55:23;;;;;;;1.20;1.20;;;;;;;24.92;66.09;97945.50;5069255;28;20224;-27
2023/08/21 02:57:49;;;;;;;1.47;1.37;;;;;;;24.91;66.07;97946.34;5051558;28;20675;-32
2023/08/21 03:00:16;;;;;;;1.33;1.23;;;;;;;24.79;66.49;97926.38;5052186;28;20725;-27
2023/08/21 03:02:43;;;;;;;1.40;1.30;;;;;;;24.91;66.15;97954.94;5052896;28;20292;-27
2023/08/21 03:05:11;;;;;;;1.40;1.30;;;;;;;24.90;66.36;97952.31;5051986;28;20315;-27
2023/08/21 03:07:37;;;;;;;1.50;1.40;;;;;;;24.91;66.18;97949.78;5053011;28;20205;-27
2023/08/21 03:10:05;;;;;;;1.10;1.10;;;;;;;24.87;66.54;97940.25;5045971;28;20573;-29
2023/08/21 03:12:31;;;;;;;1.40;1.30;;;;;;;24.91;66.20;97949.78;5055543;28;20608;-27
2023/08/21 03:14:58;;;;;;;1.50;1.40;;;;;;;24.92;66.17;97941.22;5050552;28;20658;-30
2023/08/21 03:17:25;;;;;;;6.73;1.40;;;;;;;24.93;65.96;97944.69;5057512;28;20232;-28
2023/08/21 03:19:51;;;;;;;1.57;1.47;;;;;;;24.92;66.16;97937.78;5052487;28;20282;-27
2023/08/21 03:22:18;;;;;;;1.50;1.40;;;;;;;24.91;66.17;97934.34;5060649;28;20211;-27
2023/08/21 03:24:44;;;;;;;1.40;1.30;;;;;;;24.93;66.50;97935.25;5054484;28;20668;-27
2023/08/21 03:27:11;;;;;;;1.40;1.30;;;;;;;24.91;66.58;97929.22;5060010;28;20546;-27
2023/08/21 03:29:38;;;;;;;1.50;1.40;;;;;;;24.91;66.43;97929.22;5053364;28;20664;-27
2023/08/21 03:32:04;;;;;;;1.27;1.27;;;;;;;24.93;66.42;97929.25;5045400;28;20251;-27
2023/08/21 03:34:31;;;;;;;1.60;1.50;;;;;;;24.93;66.33;97931.81;5052169;28;20204;-27
2023/08/21 03:36:58;;;;;;;1.17;1.17;;;;;;;24.92;66.45;97935.22;5051449;28;20288;-27
2023/08/21 03:39:24;;;;;;;1.30;1.30;;;;;;;24.92;66.06;97928.38;5050506;28;20212;-28
2023/08/21 03:41:51;;;;;;;1.50;1.40;;;;;;;24.92;66.05;97930.94;5052028;28;20205;-27
2023/08/21 03:44:17;;;;;;;1.40;1.30;;;;;;;24.92;66.50;97933.50;5052371;28;20201;-27
2023/08/21 03:46:44;;;;;;;1.20;1.20;;;;;;;24.92;66.12;97930.94;5048337;28;20228;-28
2023/08/21 03:49:10;;;;;;;1.30;1.30;;;;;;;24.93;66.50;97942.94;5050534;28;20201;-27
2023/08/21 03:51:37;;;;;;;1.60;1.50;;;;;;;24.89;66.36;97936.00;5051505;28;20255;-27
2023/08/21 03:54:04;;;;;;;1.33;1.30;;;;;;;24.79;66.36;97912.63;5051836;28;20263;-27
2023/08/21 03:56:31;;;;;;;1.60;1.50;;;;;;;24.93;66.26;97942.09;5045926;28;20294;-27
2023/08/21 03:58:57;;;;;;;1.23;1.23;;;;;;;24.93;65.95;97947.25;5050533;28;20493;-27
2023/08/21 04:01:24;;;;;;;1.47;1.37;;;;;;;24.93;66.48;97948.09;5055665;28;20231;-28
2023/08/21 04:03:51;;;;;;;1.23;1.23;;;;;;;24.92;66.50;97941.22;5052786;28;20219;-27
2023/08/21 04:06:17;;;;;;;1.20;1.20;;;;;;;24.92;66.42;97941.22;5055115;28;20607;-27
2023/08/21 04:08:44;;;;;;;1.30;1.30;;;;;;;24.93;66.49;97944.69;5043573;28;20265;-27
2023/08/21 04:11:10;;;;;;;1.50;1.40;;;;;;;24.93;66.56;97942.94;5058415;28;20200;-27
2023/08/21 04:13:37;;;;;;;1.10;1.10;;;;;;;24.91;66.45;97947.22;5055180;28;20250;-27
2023/08/21 04:16:04;;;;;;;1.30;1.30;;;;;;;24.89;66.46;97942.84;5058823;28;20353;-27
2023/08/21 04:18:31;;;;;;;1.53;1.43;;;;;;;24.92;66.54;97948.06;5051332;28;20620;-27
2023/08/21 04:21:07;;;;;;;1.50;1.40;;;;;;;24.91;66.45;97954.06;5051917;28;20196;-27
2023/08/21 04:23:34;;;;;;;1.40;1.30;;;;;;;24.91;66.49;97954.94;5051764;28;20205;-27
2023/08/21 04:26:04;;;;;;;1.57;1.47;;;;;;;24.90;66.10;97958.31;5049489;28;20229;-28
2023/08/21 04:28:30;;;;;;;1.40;1.30;;;;;;;24.91;66.34;97952.34;5058969;28;20200;-27
2023/08/21 04:30:57;;;;;;;1.20;1.20;;;;;;;24.91;65.74;97947.22;5052161;28;20225;-27
2023/08/21 04:33:30;;;;;;;1.27;1.27;;;;;;;24.88;66.47;97944.56;5058644;28;20709;-27
2023/08/21 04:35:57;;;;;;;1.30;1.30;;;;;;;24.91;66.37;97939.50;5059729;28;20774;-27
2023/08/21 04:38:23;;;;;;;1.20;1.20;;;;;;;24.92;66.37;97938.66;5055091;28;20212;-27
2023/08/21 04:40:50;;;;;;;1.50;1.40;;;;;;;24.91;66.09;97944.66;5056126;28;20200;-27
2023/08/21 04:43:17;;;;;;;1.20;1.20;;;;;;;24.91;66.57;97941.19;5054865;28;20208;-27
2023/08/21 04:45:48;;;;;;;1.40;1.30;;;;;;;24.91;66.08;97944.66;5056103;28;20256;-27
2023/08/21 04:48:15;;;;;;;1.20;1.20;;;;;;;24.92;66.39;97950.63;5046541;28;20208;-29
2023/08/21 04:50:42;;;;;;;1.50;1.40;;;;;;;24.90;66.29;97944.59;5055375;28;20282;-27
2023/08/21 04:53:08;;;;;;;2.90;1.40;;;;;;;24.91;66.46;97947.22;5055542;28;20207;-27
2023/08/21 04:55:36;;;;;;;1.50;1.40;;;;;;;24.91;66.37;97946.34;5053970;28;20259;-28
2023/08/21 04:58:03;;;;;;;1.60;1.50;;;;;;;24.92;66.40;97948.06;5055195;28;20196;-27
2023/08/21 05:00:30;;;;;;;1.40;1.30;;;;;;;24.92;66.16;97960.91;5055592;28;20213;-27
2023/08/21 05:02:57;;;;;;;1.50;1.40;;;;;;;24.93;66.12;97962.69;5054383;28;20197;-27
2023/08/21 05:05:24;;;;;;;1.50;1.40;;;;;;;24.92;66.46;97961.81;5054680;28;20259;-27
2023/08/21 05:07:52;;;;;;;3.10;1.43;;;;;;;24.91;66.17;97957.50;5054538;28;20251;-27
2023/08/21 05:10:18;;;;;;;1.23;1.23;;;;;;;24.78;65.89;97941.75;5052504;28;20262;-27
2023/08/21 05:12:45;;;;;;;1.30;1.30;;;;;;;24.92;66.25;97968.63;5052637;28;20273;-27
2023/08/21 05:15:12;;;;;;;1.60;1.50;;;;;;;24.89;66.01;97964.31;5056711;28;20271;-27
2023/08/21 05:17:39;;;;;;;1.60;1.50;;;;;;;24.91;66.42;97964.34;5052799;28;20306;-27
2023/08/21 05:20:06;;;;;;;1.50;1.40;;;;;;;24.92;66.41;97969.50;5047121;28;20218;-31
2023/08/21 05:22:32;;;;;;;1.70;1.60;;;;;;;24.92;66.22;97972.09;5056617;28;20251;-27
2023/08/21 05:24:59;;;;;;;2.00;1.90;;;;;;;24.92;66.32;97966.94;5046089;28;20225;-27
2023/08/21 05:27:25;;;;;;;3.00;2.70;;;;;;;24.92;67.67;97972.09;5051383;28;20224;-32
2023/08/21 05:29:52;;;;;;;4.57;3.00;;;;;;;24.92;67.66;97969.50;5047467;28;20212;-28
2023/08/21 05:32:19;;;;;;;4.83;3.20;;;;;;;24.93;67.98;97972.97;5057906;28;20204;-27
2023/08/21 05:34:46;;;;;;;3.93;3.60;;;;;;;24.92;68.37;97977.22;5060953;28;20205;-27
2023/08/21 05:37:12;;;;;;;4.50;3.60;;;;;;;24.91;68.64;97969.47;5058215;28;20209;-27
2023/08/21 05:39:39;;;;;;;4.30;3.60;;;;;;;24.92;68.30;97969.50;5055040;28;20220;-27
2023/08/21 05:42:05;;;;;;;4.80;3.53;;;;;;;24.90;68.73;97972.91;5057373;28;20232;-27
2023/08/21 05:44:32;;;;;;;3.87;3.33;;;;;;;24.89;68.50;97979.72;5055065;28;20644;-27
2023/08/21 05:46:59;;;;;;;6.60;3.90;;;;;;;24.90;68.44;97976.31;5053680;28;20301;-29
2023/08/21 05:49:25;;;;;;;5.47;4.00;;;;;;;24.90;68.98;97976.31;5059616;28;20193;-27
2023/08/21 05:51:53;;;;;;;4.40;4.00;;;;;;;24.90;68.98;97976.31;5053282;28;20201;-27
2023/08/21 05:54:20;;;;;;;4.30;3.90;;;;;;;24.90;68.66;97978.03;5056066;28;20312;-27
2023/08/21 05:56:46;;;;;;;5.87;3.90;;;;;;;24.88;68.87;97985.72;5057266;28;20224;-27
2023/08/21 05:59:13;;;;;;;4.40;3.90;;;;;;;24.89;68.91;97990.00;5058109;28;20566;-27
2023/08/21 06:01:40;;;;;;;5.83;4.20;;;;;;;24.87;68.54;97989.09;5040324;28;20197;-27
2023/08/21 06:04:06;;;;;;;4.53;4.13;;;;;;;24.88;68.95;97988.28;5056755;28;20224;-28
2023/08/21 06:06:33;;;;;;;4.17;3.83;;;;;;;24.90;68.92;97993.47;5056871;28;20222;-27
2023/08/21 06:08:59;;;;;;;7.00;4.30;;;;;;;24.89;69.53;97992.59;5053497;28;20274;-27
2023/08/21 06:11:26;;;;;;;7.87;4.70;;;;;;;24.86;69.03;97989.94;5050305;28;20611;-27
2023/08/21 06:13:52;;;;;;;4.40;4.00;;;;;;;24.90;69.05;97994.31;5052798;28;20205;-27
2023/08/21 06:16:19;;;;;;;7.93;4.00;;;;;;;24.90;68.70;97999.47;5045287;28;20248;-27
2023/08/21 06:18:46;;;;;;;4.77;4.03;;;;;;;24.90;68.50;97993.47;5053401;28;20239;-27
2023/08/21 06:21:12;;;;;;;4.47;4.07;;;;;;;24.91;68.57;97997.75;5060346;28;20227;-28
2023/08/21 06:23:39;;;;;;;4.10;3.53;;;;;;;24.89;68.24;97995.16;5055200;28;20208;-27
2023/08/21 06:26:06;;;;;;;6.10;3.90;;;;;;;24.91;68.53;98001.22;5060018;28;20997;-27
2023/08/21 06:28:32;;;;;;;5.97;3.50;;;;;;;24.91;68.14;98006.34;5054384;28;20260;-27
2023/08/21 06:30:59;;;;;;;5.53;3.60;;;;;;;24.89;68.13;98002.88;5059203;28;20192;-27
2023/08/21 06:33:25;;;;;;;4.80;4.00;;;;;;;24.89;68.32;98000.28;5053693;28;20576;-27
2023/08/21 06:35:52;;;;;;;6.37;3.60;;;;;;;24.89;68.25;97995.16;5056003;28;20457;-27
2023/08/21 06:38:19;;;;;;;3.63;3.33;;;;;;;24.92;68.23;97996.91;5053150;28;20232;-27
2023/08/21 06:40:46;;;;;;;4.63;3.60;;;;;;;24.91;68.02;97992.63;5055106;28;20647;-27
2023/08/21 06:43:12;;;;;;;3.90;3.60;;;;;;;24.93;67.90;97988.41;5045841;28;20286;-27
2023/08/21 06:45:39;;;;;;;4.63;3.40;;;;;;;24.92;67.95;97986.63;5050802;28;20271;-27
2023/08/21 06:48:05;;;;;;;3.90;3.50;;;;;;;24.88;67.93;97984.84;5050002;28;20213;-27
2023/08/21 06:50:32;;;;;;;4.50;3.70;;;;;;;24.92;67.78;97994.34;5051151;28;20320;-27
2023/08/21 06:52:59;;;;;;;4.57;3.50;;;;;;;24.68;67.65;97950.06;5048591;28;20262;-27
2023/08/21 06:55:25;;;;;;;3.93;3.37;;;;;;;24.93;67.78;98001.25;5047837;28;20285;-27
2023/08/21 06:57:52;;;;;;;3.37;3.07;;;;;;;24.95;67.37;97994.41;5050279;28;20275;-27
2023/08/21 07:00:18;;;;;;;4.97;3.50;;;;;;;24.96;67.56;97991.88;5049445;28;20221;-27
2023/08/21 07:02:45;;;;;;;4.27;3.23;;;;;;;24.96;67.62;97988.47;5044785;28;20212;-27
2023/08/21 07:05:12;;;;;;;4.93;3.03;;;;;;;24.95;67.22;97995.31;5049649;28;20244;-27
2023/08/21 07:07:38;;;;;;;3.50;3.10;;;;;;;24.96;67.44;98004.75;5046654;28;20232;-27
2023/08/21 07:10:05;;;;;;;3.47;3.17;;;;;;;24.96;67.56;98001.31;5043562;28;20255;-27
2023/08/21 07:12:32;;;;;;;3.50;3.20;;;;;;;24.98;67.29;98003.09;5053867;28;20274;-30
2023/08/21 07:14:58;;;;;;;3.30;3.00;;;;;;;24.95;67.42;97994.41;5050409;28;20655;-27
2023/08/21 07:17:26;;;;;;;3.30;3.00;;;;;;;24.99;67.27;98001.41;5050389;28;20685;-32
2023/08/21 07:19:52;;;;;;;3.10;2.80;;;;;;;25.00;67.06;98006.56;5044842;28;20283;-29
2023/08/21 07:22:20;;;;;;;3.57;3.27;;;;;;;24.98;67.37;98000.50;5047304;28;20656;-27
2023/08/21 07:24:47;;;;;;;3.70;2.73;;;;;;;24.99;67.18;98001.41;5048963;28;20208;-35
2023/08/21 07:27:14;;;;;;;3.80;3.40;;;;;;;24.99;66.89;98003.97;5049375;28;20242;-27
2023/08/21 07:29:41;;;;;;;3.50;2.93;;;;;;;25.00;66.82;98010.84;5053133;28;20320;-27
2023/08/21 07:32:07;;;;;;;3.23;2.93;;;;;;;25.00;66.84;98008.25;5047637;28;20241;-27
2023/08/21 07:34:34;;;;;;;3.60;3.00;;;;;;;24.98;67.04;98010.81;5053849;28;20292;-27
2023/08/21 07:37:00;;;;;;;2.93;2.73;;;;;;;24.96;67.14;98007.31;5042961;28;20750;-27
2023/08/21 07:39:27;;;;;;;3.90;2.93;;;;;;;24.99;67.15;98019.41;5049359;28;20278;-27
2023/08/21 07:41:53;;;;;;;3.20;2.90;;;;;;;24.99;66.87;98017.66;5045624;28;20205;-27
2023/08/21 07:44:20;;;;;;;3.33;3.03;;;;;;;25.00;66.80;98018.56;5050502;28;20668;-27
2023/08/21 07:46:47;;;;;;;3.37;3.07;;;;;;;24.99;66.73;98016.81;5046209;28;20232;-27
2023/08/21 07:49:13;;;;;;;2.97;2.70;;;;;;;25.00;66.80;98018.56;5051573;28;20626;-27
2023/08/21 07:51:40;;;;;;;3.20;2.90;;;;;;;24.99;66.66;98016.81;5043070;28;20201;-27
2023/08/21 07:54:06;;;;;;;2.87;2.67;;;;;;;24.98;67.25;98020.22;5044683;28;20243;-27
2023/08/21 07:56:35;;;;;;;2.90;2.70;;;;;;;24.96;66.66;98012.44;5048536;28;20220;-27
2023/08/21 07:59:02;;;;;;;2.73;2.53;;;;;;;24.97;67.08;98010.75;5054312;28;20267;-28
2023/08/21 08:01:29;;;;;;;2.60;2.40;;;;;;;24.96;66.79;98011.59;5055774;28;20221;-27
2023/08/21 08:03:56;;;;;;;3.00;2.80;;;;;;;24.76;67.19;97981.97;5048223;28;20536;-28
2023/08/21 08:06:23;;;;;;;2.80;2.60;;;;;;;24.96;66.91;98015.03;5051454;28;20221;-27
2023/08/21 08:08:50;;;;;;;2.50;2.30;;;;;;;24.97;67.04;98018.47;5049064;28;20558;-27
2023/08/21 08:11:16;;;;;;;4.00;2.70;;;;;;;24.96;67.07;98027.03;5048861;28;20205;-28
2023/08/21 08:13:43;;;;;;;2.90;2.70;;;;;;;24.97;66.68;98019.34;5047854;28;20394;-29
2023/08/21 08:16:09;;;;;;;2.80;2.60;;;;;;;24.91;66.98;98008.94;5048464;28;20629;-27
2023/08/21 08:18:36;;;;;;;2.70;2.50;;;;;;;24.96;66.86;98020.16;5054836;28;20605;-27
2023/08/21 08:21:03;;;;;;;2.90;2.70;;;;;;;24.97;66.83;98021.06;5047782;28;20412;-27
2023/08/21 08:23:29;;;;;;;2.67;2.47;;;;;;;24.96;67.09;98019.31;5050889;28;20208;-33
2023/08/21 08:25:57;;;;;;;2.50;2.30;;;;;;;24.91;66.86;98014.06;5053543;28;20224;-27
2023/08/21 08:28:23;;;;;;;2.60;2.40;;;;;;;24.96;67.02;98025.31;5052857;28;20575;-27
2023/08/21 08:30:50;;;;;;;2.80;2.60;;;;;;;24.95;67.11;98020.13;5051764;28;20201;-27
2023/08/21 08:33:17;;;;;;;2.63;2.43;;;;;;;24.97;66.68;98026.19;5054094;28;20200;-31
2023/08/21 08:35:44;;;;;;;2.53;2.33;;;;;;;24.98;66.59;98025.34;5058303;28;20230;-28
2023/08/21 08:38:10;;;;;;;2.60;2.40;;;;;;;24.97;66.59;98021.94;5048462;28;20258;-28
2023/08/21 08:40:44;;;;;;;2.67;2.47;;;;;;;24.98;66.90;98027.91;5045165;28;20241;-28
2023/08/21 08:43:11;;;;;;;2.63;2.43;;;;;;;24.97;66.97;98023.63;5033368;28;20624;-27
2023/08/21 08:45:38;;;;;;;2.30;2.20;;;;;;;24.99;66.93;98032.25;5063413;22;20231;-30
2023/08/21 08:48:05;;;;;;;3.10;2.53;;;;;;;24.98;66.78;98026.22;5048856;28;20205;-29
2023/08/21 08:50:32;;;;;;;2.43;2.33;;;;;;;24.98;66.54;98021.09;5066587;28;20515;-36
2023/08/21 08:52:59;;;;;;;2.60;2.40;;;;;;;24.99;66.74;98025.38;5067979;28;20261;-28
2023/08/21 08:55:41;;;;;;;2.50;2.30;;;;;;;24.98;66.54;98023.66;5060245;28;20216;-29
2023/08/21 08:58:07;;;;;;;2.40;2.20;;;;;;;24.99;66.61;98022.81;5062147;28;20201;-31
2023/08/21 09:00:34;;;;;;;2.43;2.23;;;;;;;24.99;66.82;98020.25;5053272;28;20274;-28
2023/08/21 09:03:01;;;;;;;2.37;2.23;;;;;;;24.99;66.78;98022.81;5058697;28;20205;-28
2023/08/21 09:05:27;;;;;;;2.37;2.17;;;;;;;24.99;66.55;98021.97;5055188;28;20259;-27
2023/08/21 09:08:06;;;;;;;2.60;2.40;;;;;;;24.98;66.43;98023.66;5055523;28;20252;-32
2023/08/21 09:10:33;;;;;;;9.90;2.63;;;;;;;24.96;63.69;98017.59;5051302;28;20298;-29
2023/08/21 09:13:01;;;;;;;3.30;2.63;;;;;;;24.98;63.72;98017.63;5038994;28;20257;-29
2023/08/21 09:15:29;;;;;;;4.60;2.97;;;;;;;24.98;64.43;98017.63;5047807;28;20742;-27
2023/08/21 09:18:11;;;;;;;5.73;2.40;;;;;;;24.99;65.19;98021.97;5059152;28;20239;-29
2023/08/21 09:20:38;;;;;;;2.70;2.50;;;;;;;25.00;64.95;98021.13;5065611;28;20274;-32
2023/08/21 09:23:05;;;;;;;3.60;2.40;;;;;;;24.99;65.44;98015.09;5054984;28;20211;-32
2023/08/21 09:25:37;;;;;;;3.10;2.60;;;;;;;24.99;65.86;98020.25;5054131;28;20310;-29
2023/08/21 09:28:06;;;;;;;10.67;3.33;;;;;;;25.00;66.86;98022.00;5056790;28;20216;-29
2023/08/21 09:30:46;;;;;;;6.37;3.50;;;;;;;24.99;67.42;98016.81;5059417;28;20265;-28
2023/08/21 09:33:12;;;;;;;12.40;4.33;;;;;;;25.01;67.90;98015.13;5063064;28;20200;-33
2023/08/21 09:35:42;;;;;;;8.40;3.93;;;;;;;25.02;67.62;98022.03;5051528;28;20270;-30
2023/08/21 09:38:09;;;;;;;5.33;3.63;;;;;;;25.03;67.65;98018.63;5051541;28;20233;-35
2023/08/21 09:40:42;;;;;;;11.37;4.13;;;;;;;25.03;68.28;98024.66;5060661;28;20229;-27
2023/08/21 09:43:12;;;;;;;9.13;4.37;;;;;;;25.03;68.33;98021.19;5058210;28;20275;-28
2023/08/21 09:45:39;;;;;;;8.83;4.50;;;;;;;25.04;68.46;98015.19;5055716;28;20228;-28
2023/08/21 09:48:06;;;;;;;22.60;4.63;;;;;;;25.03;67.93;98014.34;5058852;28;20235;-32
2023/08/21 09:50:34;;;;;;;13.40;4.20;;;;;;;25.04;67.77;98008.38;5049282;28;20561;-28
2023/08/21 09:53:01;;;;;;;8.87;4.00;;;;;;;25.01;67.72;97999.69;5054546;28;20228;-29
2023/08/21 09:55:31;;;;;;;4.90;4.07;;;;;;;25.03;67.37;98005.75;5041495;28;20298;-34
2023/08/21 09:58:01;;;;;;;8.70;3.90;;;;;;;25.05;67.48;98011.81;5041601;28;20213;-30
2023/08/21 10:00:32;;;;;;;8.67;3.87;;;;;;;25.05;67.59;98004.09;5056744;28;20312;-31
2023/08/21 10:03:03;;;;;;;7.83;3.63;;;;;;;25.06;67.02;98008.41;5051836;28;20197;-30
2023/08/21 10:05:33;;;;;;;9.00;3.87;;;;;;;25.05;67.43;98004.94;5063088;28;20255;-28
2023/08/21 10:08:04;;;;;;;10.37;3.50;;;;;;;25.05;67.29;97999.81;5055762;28;20467;-28
2023/08/21 10:10:34;;;;;;;7.80;3.77;;;;;;;25.05;66.91;97994.66;5053082;28;20201;-34
2023/08/21 10:13:01;;;;;;;8.80;4.30;;;;;;;25.03;66.85;97988.63;5056611;28;20212;-35
2023/08/21 10:15:28;;;;;;;5.97;3.50;;;;;;;25.06;66.82;97980.13;5058182;28;20644;-31
2023/08/21 10:17:54;;;;;;;5.73;3.30;;;;;;;25.05;66.67;97979.22;5055077;28;20258;-34
2023/08/21 10:20:23;;;;;;;5.63;3.40;;;;;;;25.07;66.90;97982.72;5053105;28;20247;-29
2023/08/21 10:22:52;;;;;;;10.00;3.30;;;;;;;25.07;67.22;97976.69;5050286;28;20266;-28
2023/08/21 10:25:23;;;;;;;9.20;3.77;;;;;;;25.04;67.14;97971.47;5057446;28;20638;-28
2023/08/21 10:27:57;;;;;;;7.07;3.97;;;;;;;25.06;67.25;97973.28;5055622;28;20211;-28
2023/08/21 10:30:27;;;;;;;8.77;4.13;;;;;;;25.08;66.99;97974.16;5055980;28;20286;-28
2023/08/21 10:32:56;;;;;;;4.20;3.80;;;;;;;25.10;67.08;97981.91;5055240;28;20619;-36
2023/08/21 10:35:30;;;;;;;5.93;3.87;;;;;;;25.10;66.79;97976.75;5049264;28;20205;-34
2023/08/21 10:38:17;;;;;;;10.00;3.70;;;;;;;25.11;67.13;97981.09;5052553;28;20251;-36
2023/08/21 10:41:16;;;;;;;6.00;4.17;;;;;;;25.11;67.01;97979.38;5056657;28;20698;-32
2023/08/21 10:43:44;;;;;;;6.47;4.20;;;;;;;25.13;66.85;97978.56;5050072;28;20947;-28
2023/08/21 10:46:11;;;;;;;7.37;4.07;;;;;;;25.13;66.91;97969.13;5055323;28;20347;-28
2023/08/21 10:48:38;;;;;;;6.63;3.67;;;;;;;25.13;67.03;97969.13;5054045;28;20201;-34
2023/08/21 10:51:08;;;;;;;6.27;4.23;;;;;;;25.13;66.67;97970.84;5056629;28;20266;-28
2023/08/21 10:53:35;;;;;;;5.57;4.23;;;;;;;25.14;66.59;97969.16;5056173;28;20204;-33
2023/08/21 10:56:03;;;;;;;8.60;4.27;;;;;;;25.14;66.55;97968.31;5054804;28;20231;-28
2023/08/21 10:58:42;;;;;;;6.30;4.50;;;;;;;25.14;66.46;97969.16;5056334;28;20231;-31
2023/08/21 11:01:08;;;;;;;6.87;4.10;;;;;;;25.14;66.90;97963.16;5051161;28;20282;-27
2023/08/21 11:03:39;;;;;;;5.90;4.10;;;;;;;25.14;66.42;97961.44;5054445;28;20608;-39
2023/08/21 11:06:07;;;;;;;6.40;4.37;;;;;;;25.16;66.38;97958.03;5053388;28;20224;-35
2023/08/21 11:08:34;;;;;;;7.13;4.90;;;;;;;25.13;66.81;97952.84;5062330;28;20232;-28
2023/08/21 11:11:04;;;;;;;6.60;5.00;;;;;;;25.16;66.44;97958.03;5056200;28;20200;-29
2023/08/21 11:13:31;;;;;;;6.17;4.30;;;;;;;25.16;66.49;97963.19;5058972;28;20209;-30
2023/08/21 11:15:59;;;;;;;7.97;4.90;;;;;;;25.15;66.88;97967.47;5056555;28;20228;-28
2023/08/21 11:18:38;;;;;;;8.20;5.23;;;;;;;25.14;66.90;97958.84;5051331;28;20233;-27
2023/08/21 11:21:05;;;;;;;8.67;4.80;;;;;;;25.14;66.72;97955.44;5056921;28;20224;-29
2023/08/21 11:23:32;;;;;;;6.80;4.80;;;;;;;25.13;66.79;97954.56;5051842;28;20303;-28
2023/08/21 11:25:59;;;;;;;6.37;4.80;;;;;;;25.14;67.06;97953.72;5058478;28;20220;-30
2023/08/21 11:28:40;;;;;;;7.33;5.00;;;;;;;25.10;66.86;97941.63;5053365;28;20228;-28
2023/08/21 11:31:06;;;;;;;8.30;5.07;;;;;;;25.08;66.85;97939.88;5035910;28;20205;-30
2023/08/21 11:33:33;;;;;;;6.50;5.07;;;;;;;25.16;66.91;97952.91;5052025;28;20281;-33
2023/08/21 11:36:00;;;;;;;7.30;4.67;;;;;;;25.14;66.91;97948.56;5058831;28;20220;-27